Time,TemperatureF,DewpointF,PressureIn,WindDirection,WindDirectionDegrees,WindSpeedMPH,WindSpeedGustMPH,Humidity,HourlyPrecipIn,Conditions,Clouds,dailyrainin,SoftwareType,DateUTC
2013-07-24 00:02:00,68.3,65.6,29.86,ESE,108,5.0,9.0,91,0.05,,,0.00,Wunderground v.1.15,2013-07-24 05:02:00,
2013-07-24 00:08:00,68.3,65.9,29.87,East,88,7.0,9.0,92,0.00,,,0.00,Wunderground v.1.15,2013-07-24 05:08:00,
2013-07-24 00:13:00,68.4,66.0,29.90,East,88,3.0,5.0,92,0.00,,,0.01,Wunderground v.1.15,2013-07-24 05:13:00,
2013-07-24 00:19:00,68.5,66.1,29.90,East,88,1.0,5.0,92,0.00,,,0.01,Wunderground v.1.15,2013-07-24 05:19:00,
2013-07-24 00:24:00,68.6,66.5,29.89,WNW,296,2.0,5.0,93,0.05,,,0.02,Wunderground v.1.15,2013-07-24 05:24:00,
2013-07-24 00:30:00,-999.9,-99.9,29.87,SSW,197,3.0,3.0,93,0.14,,,0.03,Wunderground v.1.15,2013-07-24 05:30:00,
2013-07-24 00:35:00,68.5,66.4,29.89,NW,325,1.0,5.0,93,0.08,,,0.03,Wunderground v.1.15,2013-07-24 05:35:00,
2013-07-24 00:40:00,68.6,66.8,29.87,NE,38,3.0,8.0,94,0.05,,,0.03,Wunderground v.1.15,2013-07-24 05:40:00,
2013-07-24 00:46:00,68.8,66.7,29.87,NNE,13,7.0,9.0,93,0.00,,,0.03,Wunderground v.1.15,2013-07-24 05:46:00,
2013-07-24 00:51:00,68.8,66.7,29.87,NNE,15,6.0,6.0,93,0.00,,,0.03,Wunderground v.1.15,2013-07-24 05:51:00,
2013-07-24 00:56:00,68.9,66.8,29.88,West,281,2.0,6.0,93,0.00,,,0.03,Wunderground v.1.15,2013-07-24 05:56:00,
2013-07-24 01:02:00,68.9,66.8,29.89,West,274,2.0,3.0,93,0.00,,,0.03,Wunderground v.1.15,2013-07-24 06:02:00,
2013-07-24 01:08:00,68.9,67.1,29.89,West,274,1.0,3.0,94,0.00,,,0.03,Wunderground v.1.15,2013-07-24 06:08:00,
2013-07-24 01:14:00,69.0,67.2,29.88,West,274,0.0,1.0,94,0.00,,,0.03,Wunderground v.1.15,2013-07-24 06:14:00,
2013-07-24 01:19:00,68.9,67.1,29.87,NNW,327,1.0,3.0,94,0.00,,,0.03,Wunderground v.1.15,2013-07-24 06:19:00,
2013-07-24 01:25:00,69.0,67.2,29.88,NNW,328,2.0,3.0,94,0.00,,,0.03,Wunderground v.1.15,2013-07-24 06:25:00,
2013-07-24 01:30:00,69.0,67.2,29.88,NNW,327,3.0,3.0,94,0.00,,,0.03,Wunderground v.1.15,2013-07-24 06:30:00,
2013-07-24 01:36:00,69.0,67.2,29.87,NNW,329,3.0,4.0,94,0.00,,,0.03,Wunderground v.1.15,2013-07-24 06:36:00,
2013-07-24 01:41:00,69.0,67.2,29.87,NNW,334,3.0,3.0,94,0.00,,,0.03,Wunderground v.1.15,2013-07-24 06:41:00,
2013-07-24 01:46:00,69.1,67.3,29.86,NNW,334,2.0,3.0,94,0.00,,,0.03,Wunderground v.1.15,2013-07-24 06:46:00,
2013-07-24 01:52:00,69.1,67.3,29.86,NNW,334,3.0,3.0,94,0.00,,,0.03,Wunderground v.1.15,2013-07-24 06:52:00,
2013-07-24 01:58:00,69.1,67.3,29.86,North,355,3.0,5.0,94,0.00,,,0.03,Wunderground v.1.15,2013-07-24 06:58:00,
2013-07-24 02:04:00,69.2,67.4,29.86,NNE,13,4.0,5.0,94,0.00,,,0.03,Wunderground v.1.15,2013-07-24 07:04:00,
2013-07-24 02:09:00,69.5,67.7,29.86,North,5,5.0,6.0,94,0.00,,,0.03,Wunderground v.1.15,2013-07-24 07:09:00,
2013-07-24 02:15:00,69.6,67.8,29.86,North,355,4.0,6.0,94,0.00,,,0.03,Wunderground v.1.15,2013-07-24 07:15:00,
2013-07-24 02:21:00,69.7,67.9,29.86,NNE,15,3.0,5.0,94,0.00,,,0.03,Wunderground v.1.15,2013-07-24 07:21:00,
2013-07-24 02:26:00,69.7,67.9,29.86,NNE,27,4.0,7.0,94,0.00,,,0.03,Wunderground v.1.15,2013-07-24 07:26:00,
2013-07-24 02:31:00,69.7,67.9,29.86,NNE,26,6.0,10.0,94,0.00,,,0.03,Wunderground v.1.15,2013-07-24 07:31:00,
2013-07-24 02:37:00,70.0,68.2,29.86,NE,36,8.0,10.0,94,0.00,,,0.03,Wunderground v.1.15,2013-07-24 07:37:00,
2013-07-24 02:42:00,70.2,68.4,29.87,NNE,26,8.0,9.0,94,0.00,,,0.03,Wunderground v.1.15,2013-07-24 07:42:00,
2013-07-24 02:48:00,70.2,68.4,29.87,NNE,18,8.0,10.0,94,0.00,,,0.03,Wunderground v.1.15,2013-07-24 07:48:00,
2013-07-24 02:53:00,70.3,68.5,29.87,NNE,17,8.0,11.0,94,0.00,,,0.03,Wunderground v.1.15,2013-07-24 07:53:00,
2013-07-24 02:58:00,70.6,68.8,29.87,NNE,31,9.0,12.0,94,0.00,,,0.03,Wunderground v.1.15,2013-07-24 07:58:00,
2013-07-24 03:03:00,70.7,68.6,29.87,NE,41,9.0,10.0,93,0.00,,,0.03,Wunderground v.1.15,2013-07-24 08:03:00,
2013-07-24 03:09:00,70.7,68.6,29.87,NE,34,9.0,12.0,93,0.00,,,0.03,Wunderground v.1.15,2013-07-24 08:09:00,
2013-07-24 03:14:00,70.8,69.0,29.88,NNE,24,9.0,11.0,94,0.00,,,0.03,Wunderground v.1.15,2013-07-24 08:14:00,
2013-07-24 03:19:00,70.9,69.1,29.88,NNE,29,9.0,13.0,94,0.00,,,0.03,Wunderground v.1.15,2013-07-24 08:19:00,
2013-07-24 03:25:00,71.0,69.2,29.88,NNE,26,9.0,11.0,94,0.00,,,0.03,Wunderground v.1.15,2013-07-24 08:25:00,
2013-07-24 03:30:00,71.1,69.0,29.88,NE,38,9.0,10.0,93,0.00,,,0.03,Wunderground v.1.15,2013-07-24 08:30:00,
2013-07-24 03:35:00,71.1,69.0,29.88,NNE,32,8.0,10.0,93,0.00,,,0.03,Wunderground v.1.15,2013-07-24 08:35:00,
2013-07-24 03:41:00,71.2,69.1,29.88,NE,42,8.0,9.0,93,0.00,,,0.03,Wunderground v.1.15,2013-07-24 08:41:00,
2013-07-24 03:46:00,71.3,69.2,29.87,NE,39,7.0,9.0,93,0.00,,,0.03,Wunderground v.1.15,2013-07-24 08:46:00,
2013-07-24 03:51:00,71.4,69.3,29.88,NNE,23,7.0,10.0,93,0.00,,,0.03,Wunderground v.1.15,2013-07-24 08:51:00,
2013-07-24 03:57:00,71.5,69.4,29.88,NE,43,8.0,10.0,93,0.00,,,0.03,Wunderground v.1.15,2013-07-24 08:57:00,
2013-07-24 04:02:00,71.5,69.1,29.88,NNE,20,8.0,10.0,92,0.00,,,0.03,Wunderground v.1.15,2013-07-24 09:02:00,
2013-07-24 04:08:00,71.4,69.0,29.87,NE,36,7.0,10.0,92,0.00,,,0.03,Wunderground v.1.15,2013-07-24 09:08:00,
2013-07-24 04:13:00,71.3,68.9,29.88,NE,45,7.0,9.0,92,0.00,,,0.03,Wunderground v.1.15,2013-07-24 09:13:00,
2013-07-24 04:19:00,71.2,68.8,29.88,NE,50,6.0,9.0,92,0.00,,,0.03,Wunderground v.1.15,2013-07-24 09:19:00,
2013-07-24 04:25:00,71.2,68.8,29.89,NE,44,7.0,8.0,92,0.00,,,0.03,Wunderground v.1.15,2013-07-24 09:25:00,
2013-07-24 04:31:00,71.2,68.8,29.89,NE,42,7.0,9.0,92,0.00,,,0.03,Wunderground v.1.15,2013-07-24 09:31:00,
2013-07-24 04:37:00,71.2,68.8,29.89,NNE,33,6.0,9.0,92,0.00,,,0.03,Wunderground v.1.15,2013-07-24 09:37:00,
2013-07-24 04:42:00,71.2,68.8,29.90,NNE,23,6.0,8.0,92,0.00,,,0.03,Wunderground v.1.15,2013-07-24 09:42:00,
2013-07-24 04:48:00,71.2,68.4,29.90,NE,35,5.0,8.0,91,0.00,,,0.03,Wunderground v.1.15,2013-07-24 09:48:00,
2013-07-24 04:53:00,71.0,68.6,29.91,NNE,24,4.0,4.0,92,0.00,,,0.03,Wunderground v.1.15,2013-07-24 09:53:00,
2013-07-24 04:58:00,71.0,68.6,29.91,NNE,24,4.0,5.0,92,0.00,,,0.03,Wunderground v.1.15,2013-07-24 09:58:00,
2013-07-24 05:03:00,70.8,68.4,29.91,NE,36,3.0,4.0,92,0.00,,,0.03,Wunderground v.1.15,2013-07-24 10:03:00,
2013-07-24 05:09:00,70.7,68.3,29.91,NE,36,4.0,5.0,92,0.00,,,0.03,Wunderground v.1.15,2013-07-24 10:09:00,
2013-07-24 05:14:00,70.6,68.2,29.91,NE,44,5.0,6.0,92,0.00,,,0.03,Wunderground v.1.15,2013-07-24 10:14:00,
2013-07-24 05:20:00,70.4,68.3,29.92,NE,45,5.0,7.0,93,0.00,,,0.03,Wunderground v.1.15,2013-07-24 10:20:00,
2013-07-24 05:25:00,70.3,68.2,29.92,NE,42,6.0,7.0,93,0.00,,,0.03,Wunderground v.1.15,2013-07-24 10:25:00,
2013-07-24 05:30:00,70.2,68.1,29.93,NE,43,5.0,6.0,93,0.00,,,0.03,Wunderground v.1.15,2013-07-24 10:30:00,
2013-07-24 05:36:00,70.3,68.2,29.93,NE,42,4.0,6.0,93,0.00,,,0.03,Wunderground v.1.15,2013-07-24 10:36:00,
2013-07-24 05:42:00,70.3,68.2,29.93,NNE,33,4.0,5.0,93,0.00,,,0.04,Wunderground v.1.15,2013-07-24 10:42:00,
2013-07-24 05:47:00,70.4,68.3,29.94,NNE,16,5.0,7.0,93,0.00,,,0.04,Wunderground v.1.15,2013-07-24 10:47:00,
2013-07-24 05:52:00,70.4,68.6,29.94,NNE,15,6.0,7.0,94,0.00,,,0.04,Wunderground v.1.15,2013-07-24 10:52:00,
2013-07-24 05:58:00,70.4,68.6,29.94,NNE,26,5.0,7.0,94,0.00,,,0.04,Wunderground v.1.15,2013-07-24 10:58:00,
2013-07-24 06:04:00,70.4,68.3,29.95,NNE,33,5.0,5.0,93,0.00,,,0.04,Wunderground v.1.15,2013-07-24 11:04:00,
2013-07-24 06:09:00,70.5,68.4,29.95,NNE,30,4.0,6.0,93,0.00,,,0.04,Wunderground v.1.15,2013-07-24 11:09:00,
2013-07-24 06:14:00,70.4,68.3,29.95,NE,34,4.0,6.0,93,0.00,,,0.04,Wunderground v.1.15,2013-07-24 11:14:00,
2013-07-24 06:20:00,70.4,68.3,29.95,East,80,3.0,3.0,93,0.00,,,0.04,Wunderground v.1.15,2013-07-24 11:20:00,
2013-07-24 06:25:00,70.3,68.2,29.95,ENE,73,3.0,5.0,93,0.00,,,0.12,Wunderground v.1.15,2013-07-24 11:25:00,
2013-07-24 06:31:00,70.3,68.5,29.96,ENE,67,4.0,5.0,94,0.00,,,0.12,Wunderground v.1.15,2013-07-24 11:31:00,
2013-07-24 06:36:00,70.3,68.5,29.96,ENE,69,5.0,5.0,94,0.00,,,0.12,Wunderground v.1.15,2013-07-24 11:36:00,
2013-07-24 06:41:00,70.4,68.6,29.97,ENE,70,5.0,5.0,94,0.00,,,0.12,Wunderground v.1.15,2013-07-24 11:41:00,
2013-07-24 06:47:00,70.4,68.6,29.97,ENE,74,4.0,5.0,94,0.00,,,0.12,Wunderground v.1.15,2013-07-24 11:47:00,
2013-07-24 06:52:00,70.4,68.6,29.97,ENE,76,3.0,5.0,94,0.00,,,0.12,Wunderground v.1.15,2013-07-24 11:52:00,
2013-07-24 06:58:00,70.3,68.5,29.96,ENE,69,4.0,5.0,94,0.00,,,0.12,Wunderground v.1.15,2013-07-24 11:58:00,
2013-07-24 07:03:00,70.3,68.5,29.97,NE,53,5.0,8.0,94,0.00,,,0.12,Wunderground v.1.15,2013-07-24 12:03:00,
2013-07-24 07:08:00,70.3,68.5,29.97,NE,56,6.0,8.0,94,0.00,,,0.12,Wunderground v.1.15,2013-07-24 12:08:00,
2013-07-24 07:14:00,70.3,68.5,29.97,ENE,65,6.0,8.0,94,0.00,,,0.12,Wunderground v.1.15,2013-07-24 12:14:00,
2013-07-24 07:19:00,70.3,68.5,29.97,ENE,68,6.0,8.0,94,0.00,,,0.12,Wunderground v.1.15,2013-07-24 12:19:00,
2013-07-24 07:24:00,70.4,68.6,29.97,ENE,64,6.0,8.0,94,0.00,,,0.12,Wunderground v.1.15,2013-07-24 12:24:00,
2013-07-24 07:30:00,70.4,68.6,29.97,ENE,62,6.0,7.0,94,0.00,,,0.12,Wunderground v.1.15,2013-07-24 12:30:00,
2013-07-24 07:36:00,70.5,68.7,29.97,East,97,6.0,7.0,94,0.00,,,0.12,Wunderground v.1.15,2013-07-24 12:36:00,
2013-07-24 07:42:00,70.6,68.8,29.97,East,86,4.0,5.0,94,0.00,,,0.12,Wunderground v.1.15,2013-07-24 12:42:00,
2013-07-24 07:47:00,70.6,68.8,29.98,East,98,3.0,5.0,94,0.00,,,0.12,Wunderground v.1.15,2013-07-24 12:47:00,
2013-07-24 07:52:00,70.6,68.5,29.98,NE,56,3.0,4.0,93,0.00,,,0.12,Wunderground v.1.15,2013-07-24 12:52:00,
2013-07-24 07:58:00,70.8,69.0,29.98,ENE,57,4.0,7.0,94,0.00,,,0.12,Wunderground v.1.15,2013-07-24 12:58:00,
2013-07-24 08:03:00,70.9,69.1,29.98,NE,38,5.0,7.0,94,0.00,,,0.12,Wunderground v.1.15,2013-07-24 13:03:00,
2013-07-24 08:08:00,71.3,69.2,29.98,NE,36,5.0,7.0,93,0.00,,,0.12,Wunderground v.1.15,2013-07-24 13:08:00,
2013-07-24 08:14:00,71.6,69.2,29.99,NNE,25,4.0,6.0,92,0.00,,,0.12,Wunderground v.1.15,2013-07-24 13:14:00,
2013-07-24 08:19:00,71.7,69.3,29.99,NE,45,5.0,6.0,92,0.00,,,0.12,Wunderground v.1.15,2013-07-24 13:19:00,
2013-07-24 08:24:00,72.1,69.3,29.99,East,79,5.0,6.0,91,0.00,,,0.12,Wunderground v.1.15,2013-07-24 13:24:00,
2013-07-24 08:30:00,72.5,69.4,29.99,ENE,77,5.0,7.0,90,0.00,,,0.12,Wunderground v.1.15,2013-07-24 13:30:00,
2013-07-24 08:37:00,72.9,69.5,29.99,East,82,5.0,7.0,89,0.00,,,0.12,Wunderground v.1.15,2013-07-24 13:37:00,
2013-07-24 08:42:00,72.8,69.4,29.99,ENE,65,3.0,5.0,89,0.00,,,0.12,Wunderground v.1.15,2013-07-24 13:42:00,
2013-07-24 08:48:00,72.6,69.2,29.99,NE,34,3.0,5.0,89,0.00,,,0.12,Wunderground v.1.15,2013-07-24 13:48:00,
2013-07-24 08:53:00,72.5,69.1,29.99,NE,56,3.0,5.0,89,0.00,,,0.12,Wunderground v.1.15,2013-07-24 13:53:00,
2013-07-24 08:59:00,72.4,68.6,29.99,NE,42,3.0,5.0,88,0.00,,,0.12,Wunderground v.1.15,2013-07-24 13:59:00,
2013-07-24 09:04:00,72.3,68.5,29.99,NE,42,2.0,3.0,88,0.00,,,0.12,Wunderground v.1.15,2013-07-24 14:04:00,
2013-07-24 09:09:00,72.4,68.6,29.99,NE,42,1.0,3.0,88,0.00,,,0.12,Wunderground v.1.15,2013-07-24 14:09:00,
2013-07-24 09:15:00,72.7,68.9,29.99,NE,42,0.0,1.0,88,0.00,,,0.12,Wunderground v.1.15,2013-07-24 14:15:00,
2013-07-24 09:20:00,73.3,69.5,29.99,NNW,338,0.0,4.0,88,0.00,,,0.12,Wunderground v.1.15,2013-07-24 14:20:00,
2013-07-24 09:26:00,73.4,69.3,29.99,North,350,2.0,5.0,87,0.00,,,0.12,Wunderground v.1.15,2013-07-24 14:26:00,
2013-07-24 09:32:00,73.5,69.1,29.99,NW,317,3.0,4.0,86,0.00,,,0.12,Wunderground v.1.15,2013-07-24 14:32:00,
2013-07-24 09:38:00,74.0,69.5,29.99,NW,321,3.0,5.0,86,0.00,,,0.12,Wunderground v.1.15,2013-07-24 14:38:00,
2013-07-24 09:43:00,74.7,69.5,29.99,NW,306,3.0,5.0,84,0.00,,,0.12,Wunderground v.1.15,2013-07-24 14:43:00,
2013-07-24 09:49:00,75.2,69.7,29.99,WNW,298,3.0,5.0,83,0.00,,,0.12,Wunderground v.1.15,2013-07-24 14:49:00,
2013-07-24 09:50:00,75.3,69.4,29.99,WNW,296,3.0,3.0,82,0.00,,,0.12,Wunderground v.1.15,2013-07-24 14:50:00,
2013-07-24 09:55:00,75.4,69.9,29.99,NW,306,3.0,6.0,83,0.00,,,0.12,Wunderground v.1.15,2013-07-24 14:55:00,
2013-07-24 10:01:00,75.6,69.7,29.99,NW,308,3.0,8.0,82,0.00,,,0.12,Wunderground v.1.15,2013-07-24 15:01:00,
2013-07-24 10:07:00,76.1,70.2,29.99,NW,306,5.0,8.0,82,0.00,,,0.12,Wunderground v.1.15,2013-07-24 15:07:00,
2013-07-24 10:13:00,76.1,69.5,29.99,NW,309,5.0,9.0,80,0.00,,,0.12,Wunderground v.1.15,2013-07-24 15:13:00,
2013-07-24 10:18:00,76.2,68.8,29.99,WNW,299,6.0,9.0,78,0.00,,,0.12,Wunderground v.1.15,2013-07-24 15:18:00,
2013-07-24 10:23:00,76.2,69.2,29.99,NNW,338,6.0,8.0,79,0.00,,,0.12,Wunderground v.1.15,2013-07-24 15:23:00,
2013-07-24 10:29:00,76.4,69.8,29.99,WNW,301,5.0,8.0,80,0.00,,,0.12,Wunderground v.1.15,2013-07-24 15:29:00,
2013-07-24 10:34:00,76.4,70.5,29.99,NNW,331,5.0,8.0,82,0.00,,,0.12,Wunderground v.1.15,2013-07-24 15:34:00,
2013-07-24 10:39:00,76.5,69.5,30.00,North,5,6.0,8.0,79,0.00,,,0.12,Wunderground v.1.15,2013-07-24 15:39:00,
2013-07-24 10:45:00,76.6,69.6,29.99,NW,325,6.0,8.0,79,0.00,,,0.12,Wunderground v.1.15,2013-07-24 15:45:00,
2013-07-24 10:50:00,77.1,69.7,29.99,NNW,331,6.0,6.0,78,0.00,,,0.12,Wunderground v.1.15,2013-07-24 15:50:00,
2013-07-24 10:56:00,77.1,69.7,29.99,NNW,338,6.0,11.0,78,0.00,,,0.12,Wunderground v.1.15,2013-07-24 15:56:00,
2013-07-24 11:02:00,77.4,69.2,29.99,North,360,7.0,10.0,76,0.00,,,0.12,Wunderground v.1.15,2013-07-24 16:02:00,
2013-07-24 11:08:00,77.4,70.4,29.99,NW,321,7.0,10.0,79,0.00,,,0.12,Wunderground v.1.15,2013-07-24 16:08:00,
2013-07-24 11:13:00,77.5,70.1,29.99,NNW,342,8.0,10.0,78,0.00,,,0.12,Wunderground v.1.15,2013-07-24 16:13:00,
2013-07-24 11:19:00,77.7,70.3,30.00,NNE,24,7.0,10.0,78,0.00,,,0.12,Wunderground v.1.15,2013-07-24 16:19:00,
2013-07-24 11:25:00,77.8,70.8,30.00,NNE,21,6.0,10.0,79,0.00,,,0.12,Wunderground v.1.15,2013-07-24 16:25:00,
2013-07-24 11:30:00,77.8,70.0,30.00,NNW,327,7.0,12.0,77,0.00,,,0.12,Wunderground v.1.15,2013-07-24 16:30:00,
2013-07-24 11:36:00,77.8,69.6,30.00,North,350,8.0,12.0,76,0.00,,,0.12,Wunderground v.1.15,2013-07-24 16:36:00,
2013-07-24 11:41:00,77.9,69.7,29.99,North,11,7.0,11.0,76,0.00,,,0.12,Wunderground v.1.15,2013-07-24 16:41:00,
2013-07-24 11:47:00,77.9,70.1,29.99,North,9,8.0,11.0,77,0.00,,,0.12,Wunderground v.1.15,2013-07-24 16:47:00,
2013-07-24 11:52:00,78.4,70.2,29.99,NNE,19,8.0,12.0,76,0.00,,,0.12,Wunderground v.1.15,2013-07-24 16:52:00,
2013-07-24 11:57:00,78.6,70.4,29.99,North,355,7.0,12.0,76,0.00,,,0.12,Wunderground v.1.15,2013-07-24 16:57:00,
2013-07-24 12:02:00,78.9,70.3,29.99,NNE,22,8.0,9.0,75,0.00,,,0.12,Wunderground v.1.15,2013-07-24 17:02:00,
2013-07-24 12:08:00,79.0,70.4,29.99,North,9,9.0,12.0,75,0.00,,,0.12,Wunderground v.1.15,2013-07-24 17:08:00,
2013-07-24 12:14:00,79.4,71.2,29.99,NNE,22,9.0,11.0,76,0.00,,,0.12,Wunderground v.1.15,2013-07-24 17:14:00,
2013-07-24 12:20:00,79.9,71.3,29.99,North,5,8.0,8.0,75,0.00,,,0.12,Wunderground v.1.15,2013-07-24 17:20:00,
2013-07-24 12:25:00,80.1,71.1,29.99,NNE,24,8.0,11.0,74,0.00,,,0.12,Wunderground v.1.15,2013-07-24 17:25:00,
2013-07-24 12:30:00,80.4,71.3,29.99,North,350,9.0,9.0,74,0.00,,,0.12,Wunderground v.1.15,2013-07-24 17:30:00,
2013-07-24 12:36:00,80.8,72.1,29.99,North,355,9.0,12.0,75,0.00,,,0.12,Wunderground v.1.15,2013-07-24 17:36:00,
2013-07-24 12:41:00,81.0,71.1,29.99,North,5,10.0,12.0,72,0.00,,,0.12,Wunderground v.1.15,2013-07-24 17:41:00,
2013-07-24 12:47:00,81.1,70.8,29.99,NNE,15,10.0,12.0,71,0.00,,,0.12,Wunderground v.1.15,2013-07-24 17:47:00,
2013-07-24 12:52:00,81.4,71.9,29.99,North,5,9.0,12.0,73,0.00,,,0.12,Wunderground v.1.15,2013-07-24 17:52:00,
2013-07-24 12:58:00,81.2,71.7,29.99,NNE,32,9.0,13.0,73,0.00,,,0.12,Wunderground v.1.15,2013-07-24 17:58:00,
2013-07-24 13:03:00,81.6,71.7,29.99,North,5,10.0,16.0,72,0.00,,,0.12,Wunderground v.1.15,2013-07-24 18:03:00,
2013-07-24 13:09:00,81.3,71.0,29.99,North,9,12.0,17.0,71,0.00,,,0.12,Wunderground v.1.15,2013-07-24 18:09:00,
2013-07-24 13:15:00,81.6,70.9,29.99,NNE,20,12.0,14.0,70,0.00,,,0.12,Wunderground v.1.15,2013-07-24 18:15:00,
2013-07-24 13:20:00,81.9,71.2,29.99,NNE,24,10.0,12.0,70,0.00,,,0.12,Wunderground v.1.15,2013-07-24 18:20:00,
2013-07-24 13:27:00,82.1,71.3,29.98,North,360,8.0,12.0,70,0.00,,,0.12,Wunderground v.1.15,2013-07-24 18:27:00,
2013-07-24 13:33:00,82.3,71.1,29.98,NNW,344,8.0,10.0,69,0.00,,,0.12,Wunderground v.1.15,2013-07-24 18:33:00,
2013-07-24 13:39:00,82.7,71.1,29.98,North,11,10.0,14.0,68,0.00,,,0.12,Wunderground v.1.15,2013-07-24 18:39:00,
2013-07-24 13:44:00,82.8,72.0,29.98,NNE,21,10.0,12.0,70,0.00,,,0.12,Wunderground v.1.15,2013-07-24 18:44:00,
2013-07-24 13:50:00,83.0,71.3,29.98,NNW,346,10.0,18.0,68,0.00,,,0.12,Wunderground v.1.15,2013-07-24 18:50:00,
2013-07-24 13:56:00,83.0,70.5,29.98,NNE,23,11.0,18.0,66,0.00,,,0.12,Wunderground v.1.15,2013-07-24 18:56:00,
2013-07-24 14:02:00,83.4,70.8,29.98,North,360,9.0,13.0,66,0.00,,,0.12,Wunderground v.1.15,2013-07-24 19:02:00,
2013-07-24 14:08:00,83.4,71.7,29.97,NNE,20,10.0,14.0,68,0.00,,,0.12,Wunderground v.1.15,2013-07-24 19:08:00,
2013-07-24 14:13:00,83.7,71.6,29.98,North,5,11.0,15.0,67,0.00,,,0.12,Wunderground v.1.15,2013-07-24 19:13:00,
2013-07-24 14:19:00,83.9,70.9,29.97,North,355,11.0,15.0,65,0.00,,,0.12,Wunderground v.1.15,2013-07-24 19:19:00,
2013-07-24 14:24:00,83.9,70.4,29.97,NNE,24,12.0,18.0,64,0.00,,,0.12,Wunderground v.1.15,2013-07-24 19:24:00,
2013-07-24 14:30:00,84.1,71.5,29.97,North,5,13.0,13.0,66,0.00,,,0.12,Wunderground v.1.15,2013-07-24 19:30:00,
2013-07-24 14:36:00,84.1,71.5,29.97,NE,41,11.0,14.0,66,0.00,,,0.12,Wunderground v.1.15,2013-07-24 19:36:00,
2013-07-24 14:41:00,84.2,72.0,29.97,NNE,25,10.0,13.0,67,0.00,,,0.12,Wunderground v.1.15,2013-07-24 19:41:00,
2013-07-24 14:47:00,84.3,71.2,29.97,NE,51,11.0,13.0,65,0.00,,,0.12,Wunderground v.1.15,2013-07-24 19:47:00,
2013-07-24 14:53:00,85.0,71.9,29.96,NE,40,10.0,12.0,65,0.00,,,0.12,Wunderground v.1.15,2013-07-24 19:53:00,
2013-07-24 14:59:00,85.1,70.6,29.96,NNE,30,10.0,14.0,62,0.00,,,0.12,Wunderground v.1.15,2013-07-24 19:59:00,
2013-07-24 15:04:00,85.0,71.0,29.96,NNE,30,12.0,17.0,63,0.00,,,0.12,Wunderground v.1.15,2013-07-24 20:04:00,
2013-07-24 15:09:00,85.1,70.6,29.96,NNE,28,11.0,17.0,62,0.00,,,0.12,Wunderground v.1.15,2013-07-24 20:09:00,
2013-07-24 15:15:00,85.6,71.6,29.96,ENE,61,11.0,13.0,63,0.00,,,0.12,Wunderground v.1.15,2013-07-24 20:15:00,
2013-07-24 15:21:00,85.8,70.8,29.96,North,5,10.0,12.0,61,0.00,,,0.12,Wunderground v.1.15,2013-07-24 20:21:00,
2013-07-24 15:27:00,86.1,73.9,29.96,ENE,58,10.0,17.0,67,0.00,,,0.12,Wunderground v.1.15,2013-07-24 20:27:00,
2013-07-24 15:33:00,86.1,70.6,29.96,NE,44,11.0,15.0,60,0.00,,,0.12,Wunderground v.1.15,2013-07-24 20:33:00,
2013-07-24 15:39:00,86.4,71.8,29.96,NE,42,11.0,15.0,62,0.00,,,0.12,Wunderground v.1.15,2013-07-24 20:39:00,
2013-07-24 15:44:00,86.5,71.9,29.96,NE,38,12.0,16.0,62,0.00,,,0.12,Wunderground v.1.15,2013-07-24 20:44:00,
2013-07-24 15:49:00,86.4,70.9,29.95,NNE,17,12.0,16.0,60,0.00,,,0.12,Wunderground v.1.15,2013-07-24 20:49:00,
2013-07-24 15:54:00,86.2,69.7,29.95,NE,36,12.0,16.0,58,0.00,,,0.12,Wunderground v.1.15,2013-07-24 20:54:00,
2013-07-24 16:00:00,86.6,72.0,29.95,NE,34,11.0,11.0,62,0.00,,,0.12,Wunderground v.1.15,2013-07-24 21:00:00,
2013-07-24 16:05:00,86.6,72.0,29.95,ENE,57,11.0,14.0,62,0.00,,,0.12,Wunderground v.1.15,2013-07-24 21:05:00,
2013-07-24 16:11:00,86.7,69.6,29.95,ENE,60,11.0,13.0,57,0.00,,,0.12,Wunderground v.1.15,2013-07-24 21:11:00,
2013-07-24 16:17:00,86.8,69.2,29.95,NE,37,11.0,14.0,56,0.00,,,0.12,Wunderground v.1.15,2013-07-24 21:17:00,
2013-07-24 16:23:00,86.8,68.7,29.95,NE,40,11.0,14.0,55,0.00,,,0.12,Wunderground v.1.15,2013-07-24 21:23:00,
2013-07-24 16:28:00,86.9,70.8,29.95,ENE,59,10.0,14.0,59,0.00,,,0.12,Wunderground v.1.15,2013-07-24 21:28:00,
2013-07-24 16:34:00,86.9,70.3,29.95,NE,42,9.0,14.0,58,0.00,,,0.12,Wunderground v.1.15,2013-07-24 21:34:00,
2013-07-24 16:39:00,87.0,70.4,29.95,NE,44,9.0,14.0,58,0.00,,,0.12,Wunderground v.1.15,2013-07-24 21:39:00,
2013-07-24 16:45:00,87.3,69.7,29.95,NE,46,9.0,12.0,56,0.00,,,0.12,Wunderground v.1.15,2013-07-24 21:45:00,
2013-07-24 16:50:00,87.1,69.5,29.95,NE,40,9.0,14.0,56,0.00,,,0.12,Wunderground v.1.15,2013-07-24 21:50:00,
2013-07-24 16:56:00,87.2,69.1,29.95,ENE,63,10.0,14.0,55,0.00,,,0.12,Wunderground v.1.15,2013-07-24 21:56:00,
2013-07-24 17:01:00,87.2,68.5,29.94,ENE,63,11.0,15.0,54,0.00,,,0.12,Wunderground v.1.15,2013-07-24 22:01:00,
2013-07-24 17:06:00,87.3,69.2,29.94,ENE,67,11.0,15.0,55,0.00,,,0.12,Wunderground v.1.15,2013-07-24 22:06:00,
2013-07-24 17:12:00,87.5,69.9,29.94,ENE,59,9.0,12.0,56,0.00,,,0.12,Wunderground v.1.15,2013-07-24 22:12:00,
2013-07-24 17:17:00,87.4,68.2,29.94,ENE,61,11.0,16.0,53,0.00,,,0.12,Wunderground v.1.15,2013-07-24 22:17:00,
2013-07-24 17:23:00,87.4,68.2,29.94,NE,46,11.0,13.0,53,0.00,,,0.12,Wunderground v.1.15,2013-07-24 22:23:00,
2013-07-24 17:28:00,87.4,68.2,29.94,NE,51,10.0,15.0,53,0.00,,,0.12,Wunderground v.1.15,2013-07-24 22:28:00,
2013-07-24 17:34:00,87.5,68.8,29.94,East,85,10.0,12.0,54,0.00,,,0.12,Wunderground v.1.15,2013-07-24 22:34:00,
2013-07-24 17:39:00,87.7,69.5,29.94,ENE,57,9.0,12.0,55,0.00,,,0.12,Wunderground v.1.15,2013-07-24 22:39:00,
2013-07-24 17:45:00,87.5,67.1,29.94,ENE,66,9.0,12.0,51,0.00,,,0.12,Wunderground v.1.15,2013-07-24 22:45:00,
2013-07-24 17:52:00,87.4,66.5,29.94,ENE,61,9.0,10.0,50,0.00,,,0.12,Wunderground v.1.15,2013-07-24 22:52:00,
2013-07-24 17:58:00,87.4,68.2,29.94,ENE,70,9.0,12.0,53,0.00,,,0.12,Wunderground v.1.15,2013-07-24 22:58:00,
2013-07-24 18:03:00,87.3,68.1,29.94,ENE,58,11.0,15.0,53,0.00,,,0.12,Wunderground v.1.15,2013-07-24 23:03:00,
2013-07-24 18:08:00,87.2,68.0,29.94,ENE,76,12.0,15.0,53,0.00,,,0.12,Wunderground v.1.15,2013-07-24 23:08:00,
2013-07-24 18:13:00,86.9,67.2,29.94,ENE,68,12.0,15.0,52,0.00,,,0.12,Wunderground v.1.15,2013-07-24 23:13:00,
2013-07-24 18:19:00,86.9,64.8,29.94,NE,55,11.0,15.0,48,0.00,,,0.12,Wunderground v.1.15,2013-07-24 23:19:00,
2013-07-24 18:24:00,86.9,65.4,29.94,ENE,64,11.0,14.0,49,0.00,,,0.12,Wunderground v.1.15,2013-07-24 23:24:00,
2013-07-24 18:30:00,86.7,66.4,29.94,NE,53,11.0,11.0,51,0.00,,,0.12,Wunderground v.1.15,2013-07-24 23:30:00,
2013-07-24 18:36:00,86.8,65.3,29.94,ENE,61,9.0,13.0,49,0.00,,,0.12,Wunderground v.1.15,2013-07-24 23:36:00,
2013-07-24 18:42:00,86.7,65.8,29.94,ENE,71,9.0,11.0,50,0.00,,,0.12,Wunderground v.1.15,2013-07-24 23:42:00,
2013-07-24 18:48:00,86.3,64.9,29.94,East,86,10.0,14.0,49,0.00,,,0.12,Wunderground v.1.15,2013-07-24 23:48:00,
2013-07-24 18:53:00,86.2,64.2,29.94,East,98,10.0,11.0,48,0.00,,,0.12,Wunderground v.1.15,2013-07-24 23:53:00,
2013-07-24 18:59:00,86.1,64.7,29.95,East,81,10.0,15.0,49,0.00,,,0.12,Wunderground v.1.15,2013-07-24 23:59:00,
2013-07-24 19:05:00,85.9,63.9,29.95,ENE,77,10.0,12.0,48,0.00,,,0.12,Wunderground v.1.15,2013-07-25 00:05:00,
2013-07-24 19:11:00,85.8,62.6,29.95,East,89,9.0,9.0,46,0.00,,,0.12,Wunderground v.1.15,2013-07-25 00:11:00,
2013-07-24 19:16:00,86.0,62.8,29.95,East,88,8.0,10.0,46,0.00,,,0.12,Wunderground v.1.15,2013-07-25 00:16:00,
2013-07-24 19:21:00,86.0,63.4,29.95,East,98,7.0,10.0,47,0.00,,,0.12,Wunderground v.1.15,2013-07-25 00:21:00,
2013-07-24 19:27:00,85.9,62.7,29.95,ESE,104,7.0,10.0,46,0.00,,,0.12,Wunderground v.1.15,2013-07-25 00:27:00,
2013-07-24 19:32:00,85.9,63.3,29.95,ESE,113,6.0,6.0,47,0.00,,,0.12,Wunderground v.1.15,2013-07-25 00:32:00,
2013-07-24 19:38:00,86.0,64.0,29.96,East,89,4.0,6.0,48,0.00,,,0.12,Wunderground v.1.15,2013-07-25 00:38:00,
2013-07-24 19:44:00,85.7,63.8,29.96,East,94,5.0,7.0,48,0.00,,,0.12,Wunderground v.1.15,2013-07-25 00:44:00,
2013-07-24 19:49:00,85.1,64.4,29.96,ENE,74,6.0,8.0,50,0.00,,,0.12,Wunderground v.1.15,2013-07-25 00:49:00,
2013-07-24 19:54:00,84.5,64.4,29.96,East,84,8.0,10.0,51,0.00,,,0.12,Wunderground v.1.15,2013-07-25 00:54:00,
2013-07-24 20:00:00,83.8,64.3,29.96,East,95,8.0,8.0,52,0.00,,,0.12,Wunderground v.1.15,2013-07-25 01:00:00,
2013-07-24 20:06:00,83.3,63.8,29.96,ENE,69,8.0,9.0,52,0.00,,,0.12,Wunderground v.1.15,2013-07-25 01:06:00,
2013-07-24 20:12:00,82.7,64.4,29.96,East,80,7.0,9.0,54,0.00,,,0.12,Wunderground v.1.15,2013-07-25 01:12:00,
2013-07-24 20:18:00,82.0,64.8,29.96,ENE,76,7.0,9.0,56,0.00,,,0.12,Wunderground v.1.15,2013-07-25 01:18:00,
2013-07-24 20:24:00,81.3,65.1,29.96,East,80,6.0,7.0,58,0.00,,,0.12,Wunderground v.1.15,2013-07-25 01:24:00,
2013-07-24 20:29:00,80.9,65.2,29.96,East,82,6.0,7.0,59,0.00,,,0.12,Wunderground v.1.15,2013-07-25 01:29:00,
2013-07-24 20:35:00,80.4,64.8,29.96,East,81,5.0,7.0,59,0.00,,,0.12,Wunderground v.1.15,2013-07-25 01:35:00,
2013-07-24 20:40:00,80.1,64.0,29.96,East,84,6.0,6.0,58,0.00,,,0.12,Wunderground v.1.15,2013-07-25 01:40:00,
2013-07-24 20:46:00,79.8,64.2,29.96,East,82,5.0,7.0,59,0.00,,,0.12,Wunderground v.1.15,2013-07-25 01:46:00,
2013-07-24 20:51:00,79.3,63.7,29.96,ENE,78,5.0,6.0,59,0.00,,,0.12,Wunderground v.1.15,2013-07-25 01:51:00,
2013-07-24 20:56:00,78.8,64.7,29.96,ENE,76,5.0,7.0,62,0.00,,,0.12,Wunderground v.1.15,2013-07-25 01:56:00,
2013-07-24 21:02:00,78.1,64.5,29.96,ENE,74,4.0,5.0,63,0.00,,,0.12,Wunderground v.1.15,2013-07-25 02:02:00,
2013-07-24 21:08:00,77.7,64.5,29.96,ENE,71,4.0,5.0,64,0.00,,,0.12,Wunderground v.1.15,2013-07-25 02:08:00,
2013-07-24 21:13:00,77.4,64.7,29.96,ENE,71,4.0,4.0,65,0.00,,,0.12,Wunderground v.1.15,2013-07-25 02:13:00,
2013-07-24 21:19:00,77.1,65.3,29.96,ENE,71,3.0,4.0,67,0.00,,,0.12,Wunderground v.1.15,2013-07-25 02:19:00,
2013-07-24 21:24:00,76.9,64.7,29.96,ENE,71,3.0,4.0,66,0.00,,,0.12,Wunderground v.1.15,2013-07-25 02:24:00,
2013-07-24 21:30:00,76.7,64.9,29.96,ENE,71,3.0,4.0,67,0.00,,,0.12,Wunderground v.1.15,2013-07-25 02:30:00,
2013-07-24 21:36:00,76.4,64.2,29.96,ENE,76,3.0,4.0,66,0.00,,,0.12,Wunderground v.1.15,2013-07-25 02:36:00,
2013-07-24 21:42:00,76.3,64.1,29.97,ENE,78,3.0,4.0,66,0.00,,,0.12,Wunderground v.1.15,2013-07-25 02:42:00,
2013-07-24 21:48:00,76.3,64.1,29.97,ENE,78,3.0,4.0,66,0.00,,,0.12,Wunderground v.1.15,2013-07-25 02:48:00,
2013-07-24 21:53:00,76.2,64.0,29.97,ENE,78,2.0,3.0,66,0.00,,,0.12,Wunderground v.1.15,2013-07-25 02:53:00,
2013-07-24 21:59:00,75.9,64.2,29.97,ENE,78,2.0,3.0,67,0.00,,,0.12,Wunderground v.1.15,2013-07-25 02:59:00,
2013-07-24 22:05:00,75.6,63.0,29.98,ENE,78,2.0,3.0,65,0.00,,,0.12,Wunderground v.1.15,2013-07-25 03:05:00,
2013-07-24 22:13:00,76.0,63.4,29.98,East,100,3.0,5.0,65,0.00,,,0.12,Wunderground v.1.15,2013-07-25 03:13:00,
2013-07-24 22:18:00,76.3,63.2,29.98,ESE,103,3.0,5.0,64,0.00,,,0.12,Wunderground v.1.15,2013-07-25 03:18:00,
2013-07-24 22:26:00,76.3,63.2,29.99,East,99,3.0,4.0,64,0.00,,,0.12,Wunderground v.1.15,2013-07-25 03:26:00,
2013-07-24 22:32:00,76.0,64.7,29.99,East,90,3.0,3.0,68,0.00,,,0.12,Wunderground v.1.15,2013-07-25 03:32:00,
2013-07-24 22:38:00,75.4,63.7,29.99,East,80,4.0,6.0,67,0.00,,,0.12,Wunderground v.1.15,2013-07-25 03:38:00,
2013-07-24 22:43:00,75.2,63.5,30.00,East,79,4.0,5.0,67,0.00,,,0.12,Wunderground v.1.15,2013-07-25 03:43:00,
2013-07-24 22:50:00,75.1,63.8,30.01,East,79,3.0,3.0,68,0.00,,,0.12,Wunderground v.1.15,2013-07-25 03:50:00,
2013-07-24 22:55:00,74.8,63.1,30.00,East,79,3.0,3.0,67,0.00,,,0.12,Wunderground v.1.15,2013-07-25 03:55:00,
2013-07-24 23:01:00,74.5,62.8,30.00,East,79,2.0,3.0,67,0.00,,,0.12,Wunderground v.1.15,2013-07-25 04:01:00,
2013-07-24 23:02:00,74.4,62.7,30.00,East,79,2.0,3.0,67,0.00,,,0.12,Wunderground v.1.15,2013-07-25 04:02:00,
2013-07-24 23:03:00,74.4,62.7,30.00,East,79,2.0,3.0,67,0.00,,,0.12,Wunderground v.1.15,2013-07-25 04:03:00,
2013-07-24 23:07:00,74.2,62.5,30.00,East,79,2.0,3.0,67,0.00,,,0.12,Wunderground v.1.15,2013-07-25 04:07:00,
2013-07-24 23:13:00,74.1,63.7,30.00,East,79,2.0,2.0,70,0.00,,,0.12,Wunderground v.1.15,2013-07-25 04:13:00,
2013-07-24 23:16:00,74.0,64.8,30.00,East,79,1.0,2.0,73,0.00,,,0.12,Wunderground v.1.15,2013-07-25 04:16:00,
2013-07-24 23:23:00,73.7,64.9,30.00,East,79,1.0,1.0,74,0.00,,,0.12,Wunderground v.1.15,2013-07-25 04:23:00,
2013-07-24 23:28:00,73.3,65.3,30.00,SE,143,2.0,2.0,76,0.00,,,0.12,Wunderground v.1.15,2013-07-25 04:28:00,
2013-07-24 23:34:00,72.9,64.1,30.00,SSE,168,2.0,4.0,74,0.00,,,0.12,Wunderground v.1.15,2013-07-25 04:34:00,
2013-07-24 23:39:00,72.7,64.3,30.00,SSW,193,3.0,5.0,75,0.00,,,0.12,Wunderground v.1.15,2013-07-25 04:39:00,
2013-07-24 23:45:00,72.8,64.4,30.01,SSW,193,4.0,5.0,75,0.00,,,0.12,Wunderground v.1.15,2013-07-25 04:45:00,
2013-07-24 23:51:00,72.8,63.2,30.01,SSW,193,3.0,3.0,72,0.00,,,0.12,Wunderground v.1.15,2013-07-25 04:51:00,
2013-07-24 23:57:00,72.7,63.1,30.01,SSW,193,1.0,3.0,72,0.00,,,0.12,Wunderground v.1.15,2013-07-25 04:57:00,